WetterOnline ( http://www.wetteronline.de )

Wetter aktuell Rothaargebirge (in 800m)

Aktuelles Wetter: Kahler Asten (841m)

6-stündlich | Neueste Meldungen
Ortszeit Temperatur Wetter
Di, 22.01. 7:00 -7.3° C wolkig
Di, 22.01. 1:00 -5.2° C wolkenlos
Mo, 21.01. 19:00 -4.8° C wolkenlos
Mo, 21.01. 13:00 -2.2° C wolkenlos
Mo, 21.01. 7:00 -4.2° C wolkenlos
Mo, 21.01. 1:00 -7.1° C wolkenlos
So, 20.01. 19:00 -5.5° C wolkenlos
So, 20.01. 13:00 -4.5° C wolkenlos
Ortszeit Temperatur Wetter
Di, 22.01. 9:30 -7.6° C bedeckt
Di, 22.01. 9:20 -7.6° C bedeckt
Di, 22.01. 9:10 -7.6° C bewölkt
Di, 22.01. 9:00 -7.6° C wolkig
Di, 22.01. 8:50 -7.6° C wolkig
Di, 22.01. 8:40 -7.2° C leicht bewölkt
Di, 22.01. 8:30 -7.3° C wolkig
Di, 22.01. 8:00 -7.1° C bedeckt
Di, 22.01. 7:30 -6.7° C wolkig
Di, 22.01. 7:00 -7.3° C wolkig
Di, 22.01. 6:30 -6.9° C wolkenlos
Ortszeit Relative Feuchte Sichtweite
Di, 22.01. 7:00 67% 28 km
Di, 22.01. 1:00 32% 70 km
Mo, 21.01. 19:00 34% 70 km
Mo, 21.01. 13:00 43% 65 km
Mo, 21.01. 7:00 35% 70 km
Mo, 21.01. 1:00 78% 16 km
So, 20.01. 19:00 59% 45 km
So, 20.01. 13:00 63% 9 km
Ortszeit Relative Feuchte Sichtweite
Di, 22.01. 9:30 79% 14 km
Di, 22.01. 9:20 79% -
Di, 22.01. 9:10 76% -
Di, 22.01. 9:00 75% 20 km
Di, 22.01. 8:50 75% -
Di, 22.01. 8:40 67% -
Di, 22.01. 8:30 65% 29 km
Di, 22.01. 8:00 64% 30 km
Di, 22.01. 7:30 60% 40 km
Di, 22.01. 7:00 67% 28 km
Di, 22.01. 6:30 59% 45 km
Ortszeit Niederschlagsmenge Niederschlagsart
Di, 22.01. 7:00 0.0 l/m2 in 12 Std. -
Di, 22.01. 1:00 0.0 l/m2 in 6 Std. -
Mo, 21.01. 19:00 0.0 l/m2 in 12 Std. -
Mo, 21.01. 13:00 0.0 l/m2 in 6 Std. -
Mo, 21.01. 7:00 0.0 l/m2 in 12 Std. -
Mo, 21.01. 1:00 0.0 l/m2 in 6 Std. -
So, 20.01. 19:00 0.0 l/m2 in 12 Std. -
So, 20.01. 13:00 0.0 l/m2 in 6 Std. -
Ortszeit Niederschlagsmenge Niederschlagsart
Di, 22.01. 9:30 0.0 l/m2 in 1 Std. -
Di, 22.01. 9:20 keine Meldung -
Di, 22.01. 9:10 keine Meldung -
Di, 22.01. 9:00 0.0 l/m2 in 1 Std. -
Di, 22.01. 8:50 keine Meldung -
Di, 22.01. 8:40 keine Meldung -
Di, 22.01. 8:30 0.0 l/m2 in 1 Std. -
Di, 22.01. 8:00 0.0 l/m2 in 1 Std. -
Di, 22.01. 7:30 0.0 l/m2 in 1 Std. -
Di, 22.01. 7:00 0.0 l/m2 in 1 Std. -
Di, 22.01. 6:30 0.0 l/m2 in 1 Std. -
Ortszeit Stärke Spitze Richtung
km/h Bft. km/h Grad Sektor
Di, 22.01. 7:00 25 4 36 200° S
Di, 22.01. 1:00 9 2 22 230° SW
Mo, 21.01. 19:00 20 4 22 300° NW
Mo, 21.01. 13:00 4 1 22 340° N
Mo, 21.01. 7:00 15 3 31 70° O
Mo, 21.01. 1:00 24 4 35 80° O
So, 20.01. 19:00 19 3 31 90° O
So, 20.01. 13:00 18 3 36 80° O
Ortszeit Stärke Spitze Richtung
km/h Bft. km/h Grad Sektor
Di, 22.01. 9:30 28 4 37 180° S
Di, 22.01. 9:20 28 4 - 180° S
Di, 22.01. 9:10 26 4 - 190° S
Di, 22.01. 9:00 30 5 43 190° S
Di, 22.01. 8:50 30 5 - 190° S
Di, 22.01. 8:40 31 5 - 190° S
Di, 22.01. 8:30 30 5 41 200° S
Di, 22.01. 8:00 29 5 43 200° S
Di, 22.01. 7:30 31 5 39 200° S
Di, 22.01. 7:00 25 4 36 200° S
Di, 22.01. 6:30 30 5 33 210° SW
Ortszeit Untergrenze Bedeckung Gattung
total tief tief mittel hoch
Di, 22.01. 7:00 5400 m 6/8 6/8 - - -
Di, 22.01. 1:00 - 0/8 0/8 - - -
Mo, 21.01. 19:00 - 0/8 0/8 - - -
Mo, 21.01. 13:00 - 0/8 0/8 - - -
Mo, 21.01. 7:00 - 0/8 0/8 - - -
Mo, 21.01. 1:00 - 0/8 0/8 - - -
So, 20.01. 19:00 - 0/8 0/8 - - -
So, 20.01. 13:00 - 0/8 0/8 - - -
Ortszeit Bedeckungsgrad in Achtel und Wolkenuntergrenze
Di, 22.01. 9:30 3(5100m) 8(6900m)
Di, 22.01. 9:20 3(5100m) 8(6900m)
Di, 22.01. 9:10 5(5100m) 7(6900m) 8(7800m)
Di, 22.01. 9:00 3(5100m) 6(7500m) 6(7800m)
Di, 22.01. 8:50 3(5100m) 6(7500m) 6(7800m)
Di, 22.01. 8:40 1(5100m) 3(7200m) 5(7800m)
Di, 22.01. 8:30 2(5100m) 4(7200m) 7(8100m)
Di, 22.01. 8:00 8(5100m)
Di, 22.01. 7:30 3(5400m) 6(6300m)
Di, 22.01. 7:00 5(5400m) 6(6300m)
Di, 22.01. 6:30 keine Wolken
Ortszeit Stationsdruck (hPa) Tendenz (hPa in 3 Std.)
Di, 22.01. 7:00 909 - 2,2
Di, 22.01. 1:00 914 - 1,2
Mo, 21.01. 19:00 916 - 0,8
Mo, 21.01. 13:00 918 - 0,7
Mo, 21.01. 7:00 918 - 0,1
Mo, 21.01. 1:00 918 + 0,9
So, 20.01. 19:00 916 + 1,4
So, 20.01. 13:00 914 + 1,2
Ortszeit Stationsdruck (hPa) Tendenz (hPa in 3 Std.)
Di, 22.01. 9:30 908 - 1,4
Di, 22.01. 9:20 908 keine Meldung
Di, 22.01. 9:10 908 keine Meldung
Di, 22.01. 9:00 908 - 1,5
Di, 22.01. 8:50 908 keine Meldung
Di, 22.01. 8:40 908 keine Meldung
Di, 22.01. 8:30 909 - 1,8
Di, 22.01. 8:00 909 - 2,0
Di, 22.01. 7:30 909 - 2,0
Di, 22.01. 7:00 909 - 2,2
Di, 22.01. 6:30 910 - 2,5
Ortszeit Schneehöhe (cm)
Di, 22.01. 7:00 22
Di, 22.01. 1:00 23
Mo, 21.01. 19:00 23
Mo, 21.01. 13:00 23
Mo, 21.01. 7:00 23
Mo, 21.01. 1:00 23
So, 20.01. 19:00 23
So, 20.01. 13:00 24
Ortszeit Schneehöhe (cm)
Di, 22.01. 9:30 22
Di, 22.01. 9:20 22
Di, 22.01. 9:10 22
Di, 22.01. 9:00 22
Di, 22.01. 8:50 22
Di, 22.01. 8:40 22
Di, 22.01. 8:30 22
Di, 22.01. 8:00 22
Di, 22.01. 7:30 22
Di, 22.01. 7:00 22
Di, 22.01. 6:30 22
Link zu dieser Seite / Seite empfehlen

Das Wetter in ...